createdAt,value
2024-03-27T00:00:20.806Z,48.88
2024-03-27T00:03:44.684Z,48.63
2024-03-27T00:06:34.775Z,48.67
2024-03-27T00:09:24.483Z,48.13
2024-03-27T00:12:14.446Z,47.85
2024-03-27T00:15:05.184Z,47.53
2024-03-27T00:17:54.959Z,47.56
2024-03-27T00:20:44.907Z,47.98
2024-03-27T00:23:34.884Z,47.96
2024-03-27T00:26:24.569Z,47.92
2024-03-27T00:29:14.454Z,47.82
2024-03-27T00:32:04.844Z,47.97
2024-03-27T00:34:54.522Z,48.20
2024-03-27T00:37:44.502Z,48.26
2024-03-27T00:40:34.179Z,48.56
2024-03-27T00:43:24.076Z,48.81
2024-03-27T00:46:13.848Z,48.84
2024-03-27T00:49:05.683Z,49.29
2024-03-27T00:51:55.555Z,49.47
2024-03-27T00:54:45.544Z,49.80
2024-03-27T00:57:35.317Z,50.00
2024-03-27T01:00:25.303Z,50.18
2024-03-27T01:03:16.174Z,50.45
2024-03-27T01:06:06.406Z,50.55
2024-03-27T01:08:56.079Z,50.79
2024-03-27T01:11:46.362Z,51.03
2024-03-27T01:14:36.044Z,51.19
2024-03-27T01:17:25.744Z,51.37
2024-03-27T01:20:17.379Z,51.61
2024-03-27T01:23:07.644Z,51.50
2024-03-27T01:25:57.422Z,51.71
2024-03-27T01:28:47.093Z,52.00
2024-03-27T01:31:36.376Z,52.20
2024-03-27T01:34:26.259Z,52.41
2024-03-27T01:37:16.431Z,52.63
2024-03-27T01:40:07.109Z,52.76
2024-03-27T01:43:02.724Z,53.14
2024-03-27T01:45:52.543Z,53.17
2024-03-27T01:48:42.314Z,53.35
2024-03-27T01:51:32.408Z,53.47
2024-03-27T01:54:23.102Z,53.37
2024-03-27T01:57:12.261Z,53.31
2024-03-27T02:00:02.148Z,53.22
2024-03-27T02:03:04.225Z,53.18
2024-03-27T02:05:54.210Z,53.05
2024-03-27T02:08:43.573Z,53.00
2024-03-27T02:11:33.975Z,52.90
2024-03-27T02:14:23.748Z,52.75
2024-03-27T02:17:20.076Z,52.90
2024-03-27T02:20:11.602Z,53.04
2024-03-27T02:23:05.566Z,52.97
2024-03-27T02:26:12.046Z,53.05
2024-03-27T02:29:03.158Z,52.93
2024-03-27T02:31:52.640Z,53.21
2024-03-27T02:34:42.204Z,53.25
2024-03-27T02:37:32.321Z,53.35
2024-03-27T02:40:21.868Z,53.19
2024-03-27T02:43:11.339Z,53.21
2024-03-27T02:46:01.241Z,52.91
2024-03-27T02:48:51.007Z,52.58
2024-03-27T02:51:40.574Z,52.38
2024-03-27T02:54:30.478Z,52.22
2024-03-27T02:57:20.247Z,52.10
2024-03-27T03:00:12.093Z,52.17
2024-03-27T03:03:01.549Z,52.19
2024-03-27T03:05:51.442Z,52.14
2024-03-27T03:08:41.415Z,52.40
2024-03-27T03:11:31.190Z,52.55
2024-03-27T03:14:21.587Z,52.62
2024-03-27T03:17:11.672Z,52.88
2024-03-27T03:20:00.934Z,52.94
2024-03-27T03:22:53.902Z,52.94
2024-03-27T03:25:43.677Z,53.01
2024-03-27T03:28:33.065Z,53.12
2024-03-27T03:31:22.918Z,53.09
2024-03-27T03:34:13.013Z,53.10
2024-03-27T03:37:02.094Z,53.38
2024-03-27T03:39:52.506Z,53.37
2024-03-27T03:42:42.046Z,53.47
2024-03-27T03:45:32.134Z,53.60
2024-03-27T03:48:25.134Z,53.79
2024-03-27T03:51:14.361Z,53.92
2024-03-27T03:54:06.798Z,54.26
2024-03-27T03:56:56.572Z,54.26
2024-03-27T03:59:46.666Z,54.34
2024-03-27T04:02:36.366Z,54.32
2024-03-27T04:05:26.250Z,54.56
2024-03-27T04:08:16.110Z,54.65
2024-03-27T04:11:05.796Z,54.70
2024-03-27T04:13:55.973Z,54.78
2024-03-27T04:16:45.666Z,54.84
2024-03-27T04:19:36.565Z,54.97
2024-03-27T04:22:26.031Z,54.88
2024-03-27T04:25:15.715Z,55.13
2024-03-27T04:28:05.896Z,55.10
2024-03-27T04:30:55.568Z,55.23
2024-03-27T04:33:45.048Z,55.44
2024-03-27T04:36:35.034Z,55.56
2024-03-27T04:39:26.359Z,55.58
2024-03-27T04:42:17.053Z,55.73
2024-03-27T04:45:08.692Z,56.01
2024-03-27T04:47:58.480Z,56.33
2024-03-27T04:50:48.246Z,56.44
2024-03-27T04:53:38.636Z,56.57
2024-03-27T04:56:28.207Z,56.49
2024-03-27T04:59:18.290Z,56.35
2024-03-27T05:02:08.165Z,56.86
2024-03-27T05:04:57.956Z,56.99
2024-03-27T05:07:47.535Z,56.93
2024-03-27T05:10:37.317Z,56.67
2024-03-27T05:13:27.608Z,56.61
2024-03-27T05:16:18.014Z,56.37
2024-03-27T05:19:08.310Z,56.27
2024-03-27T05:21:57.770Z,56.00
2024-03-27T05:24:48.887Z,55.85
2024-03-27T05:27:39.409Z,56.75
2024-03-27T05:30:29.060Z,56.93
2024-03-27T05:33:19.352Z,57.12
2024-03-27T05:36:17.228Z,57.26
2024-03-27T05:39:12.927Z,57.42
2024-03-27T05:42:02.960Z,57.58
2024-03-27T05:44:53.414Z,57.62
2024-03-27T05:47:43.592Z,56.28
2024-03-27T05:50:34.321Z,55.09
2024-03-27T05:53:24.603Z,54.51
2024-03-27T05:56:14.711Z,53.80
2024-03-27T05:59:04.957Z,52.95
2024-03-27T06:01:55.272Z,52.34
2024-03-27T06:04:45.466Z,51.97
2024-03-27T06:07:35.467Z,51.84
2024-03-27T06:10:26.037Z,51.76
2024-03-27T06:13:16.545Z,51.68
2024-03-27T06:16:07.049Z,50.91
2024-03-27T06:18:56.825Z,50.70
2024-03-27T06:21:46.402Z,50.54
2024-03-27T06:24:36.278Z,50.55
2024-03-27T06:27:26.598Z,50.33
2024-03-27T06:30:17.141Z,50.13
2024-03-27T06:33:07.382Z,49.78
2024-03-27T06:35:58.066Z,49.34
2024-03-27T06:38:50.080Z,49.54
2024-03-27T06:41:43.775Z,49.51
2024-03-27T06:44:35.456Z,49.32
2024-03-27T06:47:27.821Z,46.52
2024-03-27T06:50:18.016Z,44.71
2024-03-27T06:53:08.317Z,43.79
2024-03-27T06:55:58.602Z,43.60
2024-03-27T06:58:48.375Z,43.68
2024-03-27T07:01:39.545Z,43.62
2024-03-27T07:04:29.988Z,42.35
2024-03-27T07:07:19.863Z,41.42
2024-03-27T07:10:10.053Z,40.78
2024-03-27T07:12:59.616Z,40.79
2024-03-27T07:15:54.188Z,40.95
2024-03-27T07:18:44.127Z,40.68
2024-03-27T07:21:33.671Z,40.29
2024-03-27T07:24:23.243Z,39.90
2024-03-27T07:27:12.918Z,40.03
2024-03-27T07:30:03.043Z,40.49
2024-03-27T07:32:53.184Z,40.26
2024-03-27T07:35:42.680Z,40.16
2024-03-27T07:38:32.550Z,40.73
2024-03-27T07:41:22.244Z,39.96
2024-03-27T07:44:13.095Z,40.32
2024-03-27T07:47:02.727Z,39.81
2024-03-27T07:49:52.495Z,40.57
2024-03-27T07:52:44.294Z,40.40
2024-03-27T07:55:33.584Z,39.92
2024-03-27T07:58:23.390Z,39.93
2024-03-27T08:01:13.530Z,39.99
2024-03-27T08:04:03.567Z,40.08
2024-03-27T08:06:57.478Z,40.54
2024-03-27T08:09:53.901Z,40.63
2024-03-27T08:12:44.285Z,40.27
2024-03-27T08:15:39.917Z,39.81
2024-03-27T08:18:45.205Z,40.21
2024-03-27T08:21:36.159Z,40.30
2024-03-27T08:24:26.460Z,39.77
2024-03-27T08:27:16.395Z,40.10
2024-03-27T08:30:07.510Z,39.95
2024-03-27T08:32:57.605Z,39.92
2024-03-27T08:35:48.007Z,39.88
2024-03-27T08:38:40.654Z,40.11
2024-03-27T08:41:31.560Z,40.18
2024-03-27T08:44:21.250Z,39.83
2024-03-27T08:47:11.818Z,40.19
2024-03-27T08:50:02.244Z,39.80
2024-03-27T08:52:52.117Z,39.78
2024-03-27T08:55:42.921Z,39.78
2024-03-27T08:58:33.232Z,39.57
2024-03-27T09:01:22.769Z,39.94
2024-03-27T09:04:12.703Z,39.54
2024-03-27T09:07:02.853Z,39.32
2024-03-27T09:09:53.039Z,39.64
2024-03-27T09:12:43.545Z,38.88
2024-03-27T09:15:34.132Z,39.05
2024-03-27T09:18:24.728Z,38.44
2024-03-27T09:21:14.723Z,38.66
2024-03-27T09:24:05.543Z,37.80
2024-03-27T09:26:55.833Z,37.25
2024-03-27T09:29:46.098Z,36.39
2024-03-27T09:32:35.693Z,35.80
2024-03-27T09:35:26.208Z,35.01
2024-03-27T09:38:16.888Z,34.08
2024-03-27T09:41:07.485Z,33.65
2024-03-27T09:43:57.879Z,32.63
2024-03-27T09:46:49.601Z,31.07
2024-03-27T09:49:39.606Z,30.57
2024-03-27T09:52:30.330Z,30.19
2024-03-27T09:55:20.569Z,29.48
2024-03-27T09:58:15.991Z,28.89
2024-03-27T10:01:09.967Z,28.86
2024-03-27T10:04:01.181Z,28.70
2024-03-27T10:06:53.105Z,27.44
2024-03-27T10:09:42.727Z,26.88
2024-03-27T10:12:32.815Z,26.46
2024-03-27T10:15:23.316Z,26.68
2024-03-27T10:18:13.568Z,25.76
2024-03-27T10:21:03.650Z,25.55
2024-03-27T10:23:54.052Z,25.71
2024-03-27T10:26:49.581Z,25.41
2024-03-27T10:29:40.252Z,25.21
2024-03-27T10:32:30.171Z,25.11
2024-03-27T10:35:20.229Z,24.80
2024-03-27T10:38:10.727Z,24.01
2024-03-27T10:41:04.518Z,22.96
2024-03-27T10:43:58.145Z,22.65
2024-03-27T10:46:48.881Z,22.08
2024-03-27T10:49:39.780Z,21.64
2024-03-27T10:52:29.858Z,21.49
2024-03-27T10:55:20.255Z,21.16
2024-03-27T10:58:11.070Z,21.10
2024-03-27T11:01:01.377Z,21.03
2024-03-27T11:03:52.162Z,21.44
2024-03-27T11:06:42.264Z,21.26
2024-03-27T11:09:32.743Z,21.57
2024-03-27T11:12:22.822Z,21.24
2024-03-27T11:15:13.225Z,20.81
2024-03-27T11:18:03.115Z,20.30
2024-03-27T11:20:55.033Z,20.35
2024-03-27T11:23:47.369Z,20.62
2024-03-27T11:26:37.484Z,20.73
2024-03-27T11:29:31.338Z,20.55
2024-03-27T11:32:21.637Z,20.12
2024-03-27T11:35:15.297Z,19.74
2024-03-27T11:38:05.178Z,19.35
2024-03-27T11:40:55.100Z,18.77
2024-03-27T11:43:45.670Z,18.32
2024-03-27T11:46:36.052Z,17.61
2024-03-27T11:49:26.251Z,18.69
2024-03-27T11:52:16.740Z,19.65
2024-03-27T11:55:07.905Z,20.28
2024-03-27T11:57:58.659Z,20.14
2024-03-27T12:00:50.583Z,19.45
2024-03-27T12:03:40.587Z,18.73
2024-03-27T12:06:31.102Z,18.37
2024-03-27T12:09:21.762Z,17.69
2024-03-27T12:12:11.465Z,17.61
2024-03-27T12:15:01.830Z,17.38
2024-03-27T12:17:57.868Z,18.70
2024-03-27T12:20:48.178Z,18.64
2024-03-27T12:23:44.723Z,18.28
2024-03-27T12:26:35.005Z,17.64
2024-03-27T12:29:25.180Z,16.99
2024-03-27T12:32:19.783Z,16.67
2024-03-27T12:35:09.980Z,17.37
2024-03-27T12:38:00.449Z,18.26
2024-03-27T12:40:50.851Z,18.41
2024-03-27T12:43:41.661Z,18.83
2024-03-27T12:46:32.464Z,18.32
2024-03-27T12:49:22.343Z,18.32
2024-03-27T12:52:13.146Z,18.21
2024-03-27T12:55:04.459Z,18.43
2024-03-27T12:57:54.455Z,18.42
2024-03-27T13:00:45.055Z,18.63
2024-03-27T13:03:34.939Z,18.17
2024-03-27T13:06:25.132Z,17.47
2024-03-27T13:09:15.822Z,17.22
2024-03-27T13:12:06.468Z,17.01
2024-03-27T13:14:56.709Z,17.00
2024-03-27T13:17:47.336Z,16.89
2024-03-27T13:20:38.122Z,17.10
2024-03-27T13:23:28.910Z,16.94
2024-03-27T13:26:19.622Z,17.10
2024-03-27T13:29:09.713Z,17.30
2024-03-27T13:31:59.370Z,17.11
2024-03-27T13:34:49.667Z,17.06
2024-03-27T13:37:40.060Z,17.18
2024-03-27T13:40:30.056Z,16.84
2024-03-27T13:43:20.251Z,16.93
2024-03-27T13:46:10.335Z,16.97
2024-03-27T13:49:00.432Z,17.13
2024-03-27T13:51:50.414Z,17.50
2024-03-27T13:54:41.047Z,17.86
2024-03-27T13:57:31.211Z,18.13
2024-03-27T14:00:21.486Z,18.29
2024-03-27T14:03:11.468Z,18.66
2024-03-27T14:06:01.378Z,20.61
2024-03-27T14:08:51.628Z,22.38
2024-03-27T14:11:41.722Z,24.39
2024-03-27T14:14:32.216Z,25.29
2024-03-27T14:17:22.101Z,25.14
2024-03-27T14:20:13.014Z,24.56
2024-03-27T14:23:02.692Z,25.11
2024-03-27T14:25:53.275Z,26.32
2024-03-27T14:28:43.257Z,26.79
2024-03-27T14:31:32.942Z,26.85
2024-03-27T14:34:23.226Z,26.46
2024-03-27T14:37:12.904Z,26.23
2024-03-27T14:40:04.011Z,26.43
2024-03-27T14:42:53.506Z,26.78
2024-03-27T14:45:43.784Z,27.07
2024-03-27T14:48:33.773Z,26.75
2024-03-27T14:51:24.674Z,26.53
2024-03-27T14:54:14.557Z,26.04
2024-03-27T14:57:04.640Z,26.88
2024-03-27T14:59:54.416Z,28.77
2024-03-27T15:02:44.922Z,30.26
2024-03-27T15:05:35.004Z,31.53
2024-03-27T15:08:24.681Z,32.35
2024-03-27T15:11:14.256Z,32.46
2024-03-27T15:14:03.834Z,32.96
2024-03-27T15:16:53.307Z,33.93
2024-03-27T15:19:42.978Z,34.92
2024-03-27T15:22:33.395Z,35.82
2024-03-27T15:25:24.201Z,36.27
2024-03-27T15:28:14.489Z,36.59
2024-03-27T15:31:04.777Z,36.29
2024-03-27T15:33:55.014Z,36.47
2024-03-27T15:36:45.045Z,36.59
2024-03-27T15:39:35.571Z,36.73
2024-03-27T15:42:25.337Z,36.24
2024-03-27T15:45:15.430Z,36.02
2024-03-27T15:48:06.146Z,36.38
2024-03-27T15:50:56.116Z,36.68
2024-03-27T15:53:46.278Z,37.34
2024-03-27T15:56:36.181Z,38.05
2024-03-27T15:59:27.202Z,38.26
2024-03-27T16:02:17.378Z,38.44
2024-03-27T16:05:07.376Z,38.82
2024-03-27T16:08:01.156Z,38.97
2024-03-27T16:10:54.191Z,39.19
2024-03-27T16:13:46.746Z,39.74
2024-03-27T16:16:38.153Z,40.09
2024-03-27T16:19:27.906Z,40.42
2024-03-27T16:22:17.517Z,40.58
2024-03-27T16:25:08.579Z,40.79
2024-03-27T16:27:58.945Z,41.03
2024-03-27T16:30:49.526Z,41.10
2024-03-27T16:33:40.126Z,41.41
2024-03-27T16:36:31.221Z,41.79
2024-03-27T16:39:20.894Z,42.25
2024-03-27T16:42:12.019Z,42.63
2024-03-27T16:45:02.322Z,43.00
2024-03-27T16:47:52.802Z,43.55
2024-03-27T16:50:43.518Z,44.05
2024-03-27T16:53:33.377Z,44.61
2024-03-27T16:56:23.446Z,44.89
2024-03-27T16:59:13.556Z,45.28
2024-03-27T17:02:04.220Z,45.82
2024-03-27T17:04:54.337Z,45.97
2024-03-27T17:07:44.739Z,46.13
2024-03-27T17:10:34.742Z,46.27
2024-03-27T17:13:24.906Z,46.65
2024-03-27T17:16:15.000Z,47.00
2024-03-27T17:19:05.341Z,47.21
2024-03-27T17:21:55.273Z,47.66
2024-03-27T17:24:45.374Z,47.94
2024-03-27T17:27:35.547Z,48.07
2024-03-27T17:30:25.409Z,48.37
2024-03-27T17:33:15.519Z,48.71
2024-03-27T17:36:06.225Z,49.12
2024-03-27T17:38:56.401Z,49.37
2024-03-27T17:41:46.394Z,49.31
2024-03-27T17:44:35.873Z,49.71
2024-03-27T17:47:25.874Z,49.95
2024-03-27T17:50:15.427Z,50.18
2024-03-27T17:53:05.513Z,50.28
2024-03-27T17:55:55.999Z,50.35
2024-03-27T17:58:46.303Z,50.45
2024-03-27T18:01:36.185Z,50.43
2024-03-27T18:04:26.176Z,50.48
2024-03-27T18:07:16.358Z,50.54
2024-03-27T18:10:06.880Z,50.60
2024-03-27T18:12:57.068Z,50.77
2024-03-27T18:15:47.693Z,51.13
2024-03-27T18:18:38.252Z,51.31
2024-03-27T18:21:28.524Z,51.68
2024-03-27T18:24:18.730Z,51.63
2024-03-27T18:27:10.021Z,51.73
2024-03-27T18:30:00.438Z,52.01
2024-03-27T18:32:51.028Z,52.08
2024-03-27T18:35:41.741Z,52.20
2024-03-27T18:38:32.347Z,52.13
2024-03-27T18:41:22.923Z,52.39
2024-03-27T18:44:12.927Z,52.69
2024-03-27T18:47:03.321Z,52.81
2024-03-27T18:49:55.346Z,53.16
2024-03-27T18:52:45.954Z,53.19
2024-03-27T18:55:36.254Z,53.50
2024-03-27T18:58:27.064Z,53.38
2024-03-27T19:01:17.559Z,53.54
2024-03-27T19:04:08.149Z,53.65
2024-03-27T19:06:58.035Z,53.71
2024-03-27T19:09:49.142Z,53.95
2024-03-27T19:12:39.443Z,54.07
2024-03-27T19:15:29.297Z,53.95
2024-03-27T19:18:19.249Z,53.75
2024-03-27T19:21:09.269Z,53.92
2024-03-27T19:23:59.163Z,54.01
2024-03-27T19:26:49.475Z,53.96
2024-03-27T19:29:39.763Z,53.97
2024-03-27T19:32:30.227Z,54.12
2024-03-27T19:35:21.757Z,54.09
2024-03-27T19:38:14.061Z,54.08
2024-03-27T19:41:05.228Z,54.00
2024-03-27T19:43:55.710Z,54.06
2024-03-27T19:46:46.146Z,54.29
2024-03-27T19:49:36.914Z,54.22
2024-03-27T19:52:32.188Z,54.19
2024-03-27T19:55:28.852Z,54.22
2024-03-27T19:58:19.356Z,54.36
2024-03-27T20:01:12.415Z,54.43
2024-03-27T20:04:02.602Z,54.60
2024-03-27T20:06:52.903Z,54.64
2024-03-27T20:09:43.806Z,54.79
2024-03-27T20:12:33.897Z,54.75
2024-03-27T20:15:24.991Z,54.68
2024-03-27T20:18:14.778Z,54.63
2024-03-27T20:21:05.970Z,54.61
2024-03-27T20:23:56.646Z,54.35
2024-03-27T20:26:46.673Z,54.62
2024-03-27T20:29:36.764Z,54.72
2024-03-27T20:32:26.770Z,54.84
2024-03-27T20:35:16.836Z,55.00
2024-03-27T20:38:07.362Z,55.07
2024-03-27T20:40:57.422Z,55.51
2024-03-27T20:43:48.446Z,55.68
2024-03-27T20:46:40.712Z,55.95
2024-03-27T20:49:31.054Z,56.27
2024-03-27T20:52:20.549Z,56.49
2024-03-27T20:55:10.895Z,56.72
2024-03-27T20:58:01.839Z,56.83
2024-03-27T21:00:51.726Z,57.07
2024-03-27T21:03:42.519Z,57.36
2024-03-27T21:06:32.504Z,57.53
2024-03-27T21:09:23.093Z,57.86
2024-03-27T21:12:14.508Z,57.91
2024-03-27T21:15:05.546Z,58.15
2024-03-27T21:17:55.290Z,58.21
2024-03-27T21:20:44.968Z,58.39
2024-03-27T21:23:34.539Z,58.66
2024-03-27T21:26:24.630Z,58.83
2024-03-27T21:29:14.720Z,58.84
2024-03-27T21:32:04.502Z,59.01
2024-03-27T21:34:57.137Z,59.36
2024-03-27T21:37:46.925Z,59.25
2024-03-27T21:40:36.698Z,59.36
2024-03-27T21:43:26.995Z,59.39
2024-03-27T21:46:16.874Z,59.57
2024-03-27T21:49:06.268Z,59.58
2024-03-27T21:51:56.126Z,59.82
2024-03-27T21:54:45.702Z,59.84
2024-03-27T21:57:35.484Z,59.89
2024-03-27T22:00:25.569Z,60.34
2024-03-27T22:03:15.446Z,59.95
2024-03-27T22:06:05.851Z,60.13
2024-03-27T22:08:56.058Z,60.31
2024-03-27T22:11:46.146Z,60.30
2024-03-27T22:14:36.334Z,60.40
2024-03-27T22:17:26.212Z,60.59
2024-03-27T22:20:16.865Z,60.78
2024-03-27T22:23:06.580Z,60.98
2024-03-27T22:25:56.349Z,61.02
2024-03-27T22:28:46.132Z,61.36
2024-03-27T22:31:36.540Z,61.36
2024-03-27T22:34:26.426Z,61.59
2024-03-27T22:37:16.106Z,61.49
2024-03-27T22:40:06.895Z,61.85
2024-03-27T22:42:56.786Z,61.66
2024-03-27T22:45:46.142Z,62.02
2024-03-27T22:48:41.077Z,62.11
2024-03-27T22:51:31.441Z,62.26
2024-03-27T22:54:21.424Z,62.43
2024-03-27T22:57:11.515Z,62.51
2024-03-27T23:00:14.725Z,62.66
2024-03-27T23:03:04.483Z,62.97
2024-03-27T23:05:54.683Z,63.16
2024-03-27T23:08:44.764Z,63.23
2024-03-27T23:11:34.638Z,63.39
2024-03-27T23:14:24.016Z,63.70
2024-03-27T23:17:13.584Z,63.58
2024-03-27T23:20:03.372Z,63.84
2024-03-27T23:22:53.573Z,63.92
2024-03-27T23:25:43.459Z,64.09
2024-03-27T23:28:32.706Z,64.10
2024-03-27T23:31:23.303Z,64.45
2024-03-27T23:34:13.028Z,64.69
2024-03-27T23:37:02.606Z,64.67
2024-03-27T23:39:52.445Z,64.57
2024-03-27T23:42:43.073Z,64.71
2024-03-27T23:45:33.846Z,64.57
2024-03-27T23:48:24.143Z,64.57
2024-03-27T23:51:13.920Z,64.38
2024-03-27T23:54:03.920Z,64.32
2024-03-27T23:56:54.103Z,64.32
2024-03-27T23:59:43.983Z,64.38
